• Join FlightAware (Why Join?)
  • Login
  • US Flag 
02:12PM EDT


 

Airport Tracker/Info


-or-


 

Live Flight TrackerFlight Track Log ✈ TAM3545 ✈ 03-Jul-2013 ✈ SBBE / BEL - SBGR / GRU

Flight Track Log - Related Links

Times and Time Zones

All times are in EDT time to prevent confusion due to time zone crossing. See the TAM3545 flight status page for this flight to view local times or setup timezone preferences in your user account.

Time Position Orientation Groundspeed Altitude Reporting Facility
EDT Latitude Longitude Course Direction KTS MPH feet Rate Location/Type
03:47AM -15.2816 -47.2550 175° South  Level Estimated
03:48AM -15.4014 -47.2440 175° South  Level Estimated
03:49AM -15.5212 -47.2329 175° South  Level Estimated
03:50AM -15.6411 -47.2219 175° South  Level Estimated
03:51AM -15.7609 -47.2108 175° South  Level Estimated
03:52AM -15.8807 -47.1997 175° South  Level Estimated
03:53AM -16.0005 -47.1886 175° South  Level Estimated
03:54AM -16.1204 -47.1775 175° South  Level Estimated
03:55AM -16.2402 -47.1664 175° South  Level Estimated
03:56AM -16.3600 -47.1553 175° South  Level Estimated
03:57AM -16.4798 -47.1441 175° South  Level Estimated
03:58AM -16.5996 -47.1330 175° South  Level Estimated
03:59AM -16.7195 -47.1218 175° South  Level Estimated
04:00AM -16.8393 -47.1106 175° South  Level Estimated
04:01AM -16.9591 -47.0994 175° South  Level Estimated
04:02AM -17.0789 -47.0882 175° South  Level Estimated
04:03AM -17.1987 -47.0770 175° South  Level Estimated
04:04AM -17.3186 -47.0658 175° South  Level Estimated
04:05AM -17.4384 -47.0545 175° South  Level Estimated
04:06AM -17.5582 -47.0432 175° South  Level Estimated
04:07AM -17.6780 -47.0319 175° South  Level Estimated
04:08AM -17.7978 -47.0206 175° South  Level Estimated
04:09AM -17.9176 -47.0093 175° South  Level Estimated
04:10AM -18.0375 -46.9980 175° South  Level Estimated
04:11AM -18.1573 -46.9866 175° South  Level Estimated
04:12AM -18.2771 -46.9753 175° South  Level Estimated
04:13AM -18.3969 -46.9639 175° South  Level Estimated
04:14AM -18.5167 -46.9525 175° South  Level Estimated
04:15AM -18.6365 -46.9411 175° South  Level Estimated
04:16AM -18.7563 -46.9296 175° South  Level Estimated
04:17AM -18.8761 -46.9182 175° South  Level Estimated
04:18AM -18.9959 -46.9067 175° South  Level Estimated
04:19AM -19.1157 -46.8953 175° South  Level Estimated
04:20AM -19.2355 -46.8838 175° South  Level Estimated
04:21AM -19.3554 -46.8723 175° South  Level Estimated
04:22AM -19.4752 -46.8607 175° South  Level Estimated
04:23AM -19.5950 -46.8492 175° South  Level Estimated
04:24AM -19.7148 -46.8376 175° South  Level Estimated
04:25AM -19.8346 -46.8261 175° South  Level Estimated
04:26AM -19.9544 -46.8145 175° South  Level Estimated
04:27AM -20.0742 -46.8028 175° South  Level Estimated
04:28AM -20.1940 -46.7912 175° South  Level Estimated
04:29AM -20.3138 -46.7796 175° South  Level Estimated
04:30AM -20.4336 -46.7679 175° South  Level Estimated
04:31AM -20.5534 -46.7562 175° South  Level Estimated
04:32AM -20.6732 -46.7445 175° South  Level Estimated
04:33AM -20.7930 -46.7328 175° South  Level Estimated
04:34AM -20.9128 -46.7211 175° South  Level Estimated
04:35AM -21.0326 -46.7093 175° South  Level Estimated
04:36AM -21.1524 -46.6975 175° South  Level Estimated
04:37AM -21.2722 -46.6857 175° South  Level Estimated
04:38AM -21.3919 -46.6739 175° South  Level Estimated
04:39AM -21.5117 -46.6620 175° South  Level Estimated
04:40AM -21.6315 -46.6502 175° South  Level Estimated
04:41AM -21.7513 -46.6383 175° South  Level Estimated
04:42AM -21.8711 -46.6264 175° South  Level Estimated
04:43AM -21.9909 -46.6145 175° South  Level Estimated
04:44AM -22.1107 -46.6026 175° South  Level Estimated
04:45AM -22.2305 -46.5906 175° South  Level Estimated
04:46AM -22.3503 -46.5786 175° South  Level Estimated
04:47AM -22.4701 -46.5666 175° South  Level Estimated
04:48AM -22.5898 -46.5546 175° South  Level Estimated
04:49AM -22.7096 -46.5426 175° South  Level Estimated
04:50AM -22.8294 -46.5305 175° South  Level Estimated
04:51AM -22.9492 -46.5184 175° South  Level Estimated
04:52AM -23.0690 -46.5063 175° South  Level Estimated
04:53AM -23.1887 -46.4942 175° South  Level Estimated
04:54AM -23.3085 -46.4821 175° South  Level Estimated
04:55AM -23.4283 -46.4699 175° South  Level Estimated
04:56AM -23.4321 -46.4695 175° South  Level Estimated
04:57AM -23.4321 -46.4695 350° North  Level Estimated
04:58AM -23.4321 -46.4695 350° North  Level Estimated
04:59AM -23.4321 -46.4695 350° North  Level Estimated
05:00AM -23.4321 -46.4695 350° North  Level Estimated
05:01AM -23.4321 -46.4695 350° North  Level Estimated
05:02AM -23.4321 -46.4695 350° North  Level Estimated
05:03AM -23.4321 -46.4695 350° North  Level Estimated
05:04AM -23.4321 -46.4695 350° North  Level Estimated
05:05AM -23.4321 -46.4695 350° North  Level Estimated
05:06AM -23.4321 -46.4695 350° North  Level Estimated
05:07AM -23.4321 -46.4695 350° North  Level Estimated
05:08AM -23.4321 -46.4695 350° North  Level Estimated
05:09AM -23.4321 -46.4695 350° North  Level Estimated
05:10AM -23.4321 -46.4695 350° North  Level Estimated
05:11AM -23.4321 -46.4695 350° North  Level Estimated